createdAt,value
2022-08-21T00:00:44.269Z,26.95
2022-08-21T00:03:14.731Z,26.78
2022-08-21T00:05:45.924Z,26.43
2022-08-21T00:08:14.466Z,26.43
2022-08-21T00:10:43.387Z,26.42
2022-08-21T00:13:12.464Z,26.49
2022-08-21T00:15:45.112Z,26.39
2022-08-21T00:18:15.319Z,26.37
2022-08-21T00:20:44.332Z,26.39
2022-08-21T00:23:13.205Z,26.38
2022-08-21T00:25:41.831Z,26.37
2022-08-21T00:28:10.449Z,26.42
2022-08-21T00:30:39.299Z,26.34
2022-08-21T00:33:08.262Z,26.25
2022-08-21T00:35:42.508Z,26.30
2022-08-21T00:38:11.081Z,26.33
2022-08-21T00:40:42.029Z,26.24
2022-08-21T00:43:11.841Z,26.15
2022-08-21T00:45:40.651Z,26.17
2022-08-21T00:48:09.264Z,26.14
2022-08-21T00:50:44.008Z,26.11
2022-08-21T00:53:12.736Z,26.12
2022-08-21T00:55:41.346Z,26.14
2022-08-21T00:58:10.489Z,26.11
2022-08-21T01:00:41.203Z,26.02
2022-08-21T01:03:12.906Z,25.97
2022-08-21T01:05:44.395Z,25.94
2022-08-21T01:08:12.941Z,25.92
2022-08-21T01:10:41.882Z,25.88
2022-08-21T01:13:11.673Z,25.81
2022-08-21T01:15:42.389Z,25.74
2022-08-21T01:18:12.160Z,25.87
2022-08-21T01:20:41.395Z,25.89
2022-08-21T01:23:11.271Z,25.79
2022-08-21T01:25:39.885Z,25.61
2022-08-21T01:28:15.661Z,25.64
2022-08-21T01:30:44.830Z,25.67
2022-08-21T01:33:13.477Z,25.79
2022-08-21T01:35:42.207Z,25.77
2022-08-21T01:38:12.153Z,25.70
2022-08-21T01:40:40.633Z,25.74
2022-08-21T01:43:09.375Z,25.54
2022-08-21T01:45:37.961Z,25.63
2022-08-21T01:48:06.555Z,25.59
2022-08-21T01:50:35.163Z,25.52
2022-08-21T01:53:03.625Z,25.70
2022-08-21T01:55:33.721Z,25.53
2022-08-21T01:58:02.437Z,25.48
2022-08-21T02:00:31.196Z,25.41
2022-08-21T02:02:59.882Z,25.39
2022-08-21T02:05:28.385Z,25.61
2022-08-21T02:07:57.103Z,25.53
2022-08-21T02:10:28.801Z,25.66
2022-08-21T02:12:58.954Z,25.70
2022-08-21T02:15:27.536Z,25.56
2022-08-21T02:17:58.005Z,25.46
2022-08-21T02:20:30.843Z,25.52
2022-08-21T02:22:59.675Z,25.51
2022-08-21T02:25:28.526Z,25.55
2022-08-21T02:27:58.835Z,25.60
2022-08-21T02:30:30.913Z,25.61
2022-08-21T02:32:59.725Z,25.53
2022-08-21T02:35:28.487Z,25.53
2022-08-21T02:38:00.126Z,25.56
2022-08-21T02:40:31.731Z,25.41
2022-08-21T02:43:02.054Z,25.41
2022-08-21T02:45:30.941Z,25.34
2022-08-21T02:48:00.906Z,25.39
2022-08-21T02:50:34.921Z,25.43
2022-08-21T02:53:03.630Z,25.43
2022-08-21T02:55:33.133Z,25.33
2022-08-21T02:58:03.121Z,25.46
2022-08-21T03:00:32.993Z,25.52
2022-08-21T03:03:01.598Z,25.47
2022-08-21T03:05:32.295Z,25.29
2022-08-21T03:08:01.162Z,25.28
2022-08-21T03:10:29.901Z,25.14
2022-08-21T03:12:58.510Z,25.25
2022-08-21T03:15:29.296Z,25.22
2022-08-21T03:17:57.834Z,25.24
2022-08-21T03:20:28.295Z,25.15
2022-08-21T03:22:57.161Z,25.15
2022-08-21T03:25:39.909Z,25.29
2022-08-21T03:28:12.945Z,25.17
2022-08-21T03:30:43.543Z,25.09
2022-08-21T03:33:13.147Z,25.21
2022-08-21T03:35:44.806Z,25.32
2022-08-21T03:38:14.037Z,25.35
2022-08-21T03:40:42.923Z,25.39
2022-08-21T03:43:11.589Z,25.59
2022-08-21T03:45:40.671Z,25.53
2022-08-21T03:48:11.082Z,25.60
2022-08-21T03:50:44.861Z,25.60
2022-08-21T03:53:16.685Z,25.65
2022-08-21T03:55:46.895Z,25.65
2022-08-21T03:58:17.133Z,25.61
2022-08-21T04:00:46.719Z,25.57
2022-08-21T04:03:16.502Z,25.50
2022-08-21T04:05:46.640Z,25.46
2022-08-21T04:08:15.788Z,25.52
2022-08-21T04:10:44.353Z,25.40
2022-08-21T04:13:12.946Z,25.36
2022-08-21T04:15:41.864Z,25.38
2022-08-21T04:18:10.997Z,25.43
2022-08-21T04:20:41.231Z,25.42
2022-08-21T04:23:13.792Z,25.53
2022-08-21T04:25:53.363Z,25.66
2022-08-21T04:28:23.367Z,25.75
2022-08-21T04:30:53.078Z,25.62
2022-08-21T04:33:21.973Z,25.70
2022-08-21T04:35:51.965Z,25.76
2022-08-21T04:38:20.859Z,25.72
2022-08-21T04:40:50.323Z,25.67
2022-08-21T04:43:19.317Z,25.68
2022-08-21T04:45:49.120Z,25.84
2022-08-21T04:48:20.131Z,26.03
2022-08-21T04:50:53.151Z,26.10
2022-08-21T04:53:24.406Z,26.14
2022-08-21T04:55:53.183Z,26.15
2022-08-21T04:58:22.805Z,26.11
2022-08-21T05:00:51.233Z,26.15
2022-08-21T05:03:19.803Z,26.13
2022-08-21T05:05:48.755Z,25.96
2022-08-21T05:08:21.293Z,25.92
2022-08-21T05:10:50.961Z,25.82
2022-08-21T05:13:19.383Z,25.95
2022-08-21T05:15:47.958Z,26.04
2022-08-21T05:18:16.411Z,26.08
2022-08-21T05:20:45.728Z,26.07
2022-08-21T05:23:15.331Z,26.02
2022-08-21T05:25:45.206Z,25.88
2022-08-21T05:28:14.693Z,25.75
2022-08-21T05:30:43.161Z,25.69
2022-08-21T05:33:11.571Z,25.58
2022-08-21T05:35:40.739Z,25.61
2022-08-21T05:38:16.571Z,25.42
2022-08-21T05:40:48.748Z,25.43
2022-08-21T05:43:18.249Z,25.55
2022-08-21T05:45:46.901Z,25.56
2022-08-21T05:48:16.868Z,25.53
2022-08-21T05:50:45.635Z,25.45
2022-08-21T05:53:14.355Z,25.41
2022-08-21T05:55:46.313Z,25.41
2022-08-21T05:58:17.538Z,25.37
2022-08-21T06:00:46.671Z,25.40
2022-08-21T06:03:16.613Z,25.35
2022-08-21T06:05:45.170Z,25.27
2022-08-21T06:08:13.735Z,25.21
2022-08-21T06:10:42.157Z,25.27
2022-08-21T06:13:10.854Z,25.31
2022-08-21T06:15:40.624Z,25.11
2022-08-21T06:18:09.090Z,25.10
2022-08-21T06:20:37.988Z,25.20
2022-08-21T06:23:06.435Z,25.17
2022-08-21T06:25:34.873Z,25.05
2022-08-21T06:28:04.725Z,25.11
2022-08-21T06:30:33.312Z,25.07
2022-08-21T06:33:03.970Z,25.05
2022-08-21T06:35:32.616Z,24.88
2022-08-21T06:38:01.048Z,24.81
2022-08-21T06:40:30.314Z,24.59
2022-08-21T06:42:59.803Z,24.31
2022-08-21T06:45:32.398Z,25.04
2022-08-21T06:48:02.571Z,25.53
2022-08-21T06:50:31.456Z,25.73
2022-08-21T06:53:04.804Z,25.79
2022-08-21T06:55:33.735Z,25.82
2022-08-21T06:58:03.304Z,25.87
2022-08-21T07:00:32.020Z,25.90
2022-08-21T07:03:02.009Z,25.92
2022-08-21T07:05:30.948Z,25.93
2022-08-21T07:07:59.623Z,25.92
2022-08-21T07:10:28.249Z,25.93
2022-08-21T07:12:59.183Z,25.94
2022-08-21T07:15:30.589Z,25.94
2022-08-21T07:17:59.797Z,25.98
2022-08-21T07:20:30.502Z,25.97
2022-08-21T07:22:59.475Z,26.00
2022-08-21T07:25:28.069Z,26.02
2022-08-21T07:27:56.683Z,26.03
2022-08-21T07:30:25.284Z,26.02
2022-08-21T07:32:53.816Z,26.04
2022-08-21T07:35:22.833Z,26.04
2022-08-21T07:37:52.987Z,26.03
2022-08-21T07:40:21.601Z,26.05
2022-08-21T07:42:52.747Z,26.05
2022-08-21T07:45:22.642Z,26.05
2022-08-21T07:47:54.227Z,26.05
2022-08-21T07:50:26.321Z,26.11
2022-08-21T07:52:56.120Z,26.11
2022-08-21T07:55:25.054Z,25.93
2022-08-21T07:57:53.638Z,25.96
2022-08-21T08:00:25.567Z,25.96
2022-08-21T08:02:55.240Z,25.96
2022-08-21T08:05:25.270Z,25.94
2022-08-21T08:07:55.148Z,25.93
2022-08-21T08:10:23.810Z,25.97
2022-08-21T08:12:55.736Z,25.98
2022-08-21T08:15:26.265Z,25.93
2022-08-21T08:17:55.886Z,25.89
2022-08-21T08:20:26.157Z,25.87
2022-08-21T08:22:56.356Z,25.72
2022-08-21T08:25:25.082Z,25.77
2022-08-21T08:27:53.699Z,25.75
2022-08-21T08:30:22.890Z,25.70
2022-08-21T08:32:51.693Z,25.69
2022-08-21T08:35:24.272Z,25.52
2022-08-21T08:37:53.505Z,25.69
2022-08-21T08:40:29.994Z,25.70
2022-08-21T08:42:58.941Z,25.70
2022-08-21T08:45:27.658Z,25.75
2022-08-21T08:47:59.334Z,25.77
2022-08-21T08:50:32.428Z,25.67
2022-08-21T08:53:05.978Z,25.51
2022-08-21T08:55:39.975Z,25.57
2022-08-21T08:58:08.727Z,25.53
2022-08-21T09:00:37.176Z,25.48
2022-08-21T09:03:05.981Z,25.55
2022-08-21T09:05:41.520Z,25.60
2022-08-21T09:08:25.771Z,25.53
2022-08-21T09:11:02.713Z,25.44
2022-08-21T09:13:42.242Z,25.32
2022-08-21T09:16:16.655Z,25.39
2022-08-21T09:18:51.240Z,25.35
2022-08-21T09:21:23.784Z,25.37
2022-08-21T09:23:59.159Z,25.29
2022-08-21T09:26:33.910Z,25.32
2022-08-21T09:29:03.278Z,25.23
2022-08-21T09:31:33.391Z,25.30
2022-08-21T09:34:03.016Z,25.24
2022-08-21T09:36:39.428Z,25.05
2022-08-21T09:39:08.289Z,25.07
2022-08-21T09:41:39.089Z,25.14
2022-08-21T09:44:09.724Z,25.13
2022-08-21T09:46:38.365Z,25.07
2022-08-21T09:49:07.026Z,25.20
2022-08-21T09:51:52.748Z,25.28
2022-08-21T09:54:21.683Z,25.13
2022-08-21T09:57:17.713Z,25.25
2022-08-21T09:59:47.062Z,25.23
2022-08-21T10:02:34.257Z,25.18
2022-08-21T10:05:08.979Z,25.07
2022-08-21T10:07:39.679Z,25.25
2022-08-21T10:10:10.960Z,25.27
2022-08-21T10:12:49.035Z,25.32
2022-08-21T10:15:24.605Z,25.45
2022-08-21T10:18:02.719Z,25.21
2022-08-21T10:20:35.308Z,25.27
2022-08-21T10:23:15.047Z,25.30
2022-08-21T10:25:50.509Z,25.27
2022-08-21T10:28:30.081Z,25.20
2022-08-21T10:31:02.182Z,25.21
2022-08-21T10:33:40.218Z,25.24
2022-08-21T10:36:15.945Z,25.00
2022-08-21T10:42:08.002Z,24.89
2022-08-21T10:44:41.769Z,25.04
2022-08-21T10:47:14.506Z,25.02
2022-08-21T10:49:47.115Z,24.97
2022-08-21T10:52:34.846Z,25.03
2022-08-21T10:55:09.125Z,25.19
2022-08-21T10:57:43.397Z,25.18
2022-08-21T11:00:16.496Z,25.18
2022-08-21T11:02:51.778Z,25.03
2022-08-21T11:05:26.400Z,24.88
2022-08-21T11:07:59.632Z,25.04
2022-08-21T11:10:33.265Z,25.13
2022-08-21T11:13:08.206Z,25.12
2022-08-21T11:15:43.424Z,25.07
2022-08-21T11:18:22.016Z,25.12
2022-08-21T11:21:01.499Z,24.98
2022-08-21T11:23:36.034Z,25.08
2022-08-21T11:26:08.481Z,25.05
2022-08-21T11:28:39.379Z,25.11
2022-08-21T11:31:16.907Z,25.07
2022-08-21T11:33:55.679Z,24.89
2022-08-21T11:36:28.389Z,24.96
2022-08-21T11:39:02.623Z,25.00
2022-08-21T11:41:33.052Z,25.06
2022-08-21T11:44:11.050Z,25.01
2022-08-21T11:46:49.602Z,24.89
2022-08-21T11:49:45.401Z,24.96
2022-08-21T11:52:18.378Z,25.08
2022-08-21T11:54:49.307Z,25.02
2022-08-21T11:57:21.785Z,25.19
2022-08-21T11:59:55.713Z,25.19
2022-08-21T12:02:30.156Z,25.26
2022-08-21T12:05:11.181Z,25.02
2022-08-21T12:07:43.421Z,25.01
2022-08-21T12:10:14.008Z,25.05
2022-08-21T12:12:44.460Z,24.92
2022-08-21T12:15:28.661Z,25.04
2022-08-21T12:18:03.340Z,25.11
2022-08-21T12:20:50.235Z,25.06
2022-08-21T12:23:27.828Z,25.00
2022-08-21T12:26:28.557Z,24.87
2022-08-21T12:29:27.056Z,24.86
2022-08-21T12:31:59.487Z,24.81
2022-08-21T12:34:35.973Z,24.86
2022-08-21T12:37:08.319Z,24.90
2022-08-21T12:39:38.838Z,24.87
2022-08-21T12:42:15.456Z,24.93
2022-08-21T12:44:46.513Z,24.91
2022-08-21T12:47:33.263Z,24.89
2022-08-21T12:50:07.313Z,24.62
2022-08-21T12:52:39.567Z,24.68
2022-08-21T12:55:09.915Z,24.87
2022-08-21T12:57:38.603Z,24.97
2022-08-21T13:00:11.789Z,24.98
2022-08-21T13:02:44.253Z,25.00
2022-08-21T13:05:18.996Z,24.78
2022-08-21T13:07:48.913Z,24.84
2022-08-21T13:10:23.616Z,24.89
2022-08-21T13:12:52.247Z,24.83
2022-08-21T13:15:33.023Z,24.72
2022-08-21T13:18:03.828Z,24.62
2022-08-21T13:20:35.930Z,24.53
2022-08-21T13:23:04.684Z,24.38
2022-08-21T13:25:37.001Z,24.30
2022-08-21T13:28:08.663Z,24.66
2022-08-21T13:30:39.940Z,24.78
2022-08-21T13:33:13.194Z,24.78
2022-08-21T13:35:52.008Z,24.77
2022-08-21T13:38:26.604Z,24.82
2022-08-21T13:40:58.958Z,24.60
2022-08-21T13:43:29.932Z,24.79
2022-08-21T13:45:58.946Z,24.81
2022-08-21T13:48:30.307Z,24.64
2022-08-21T13:51:00.950Z,24.76
2022-08-21T13:53:33.133Z,24.78
2022-08-21T13:56:01.941Z,24.80
2022-08-21T13:58:32.298Z,24.75
2022-08-21T14:01:01.667Z,24.79
2022-08-21T14:03:36.526Z,24.80
2022-08-21T14:06:13.257Z,24.84
2022-08-21T14:08:42.471Z,24.84
2022-08-21T14:11:13.263Z,24.67
2022-08-21T14:13:43.494Z,24.63
2022-08-21T14:16:19.215Z,24.25
2022-08-21T14:18:53.827Z,24.49
2022-08-21T14:21:34.378Z,24.61
2022-08-21T14:24:06.470Z,24.58
2022-08-21T14:26:37.132Z,24.58
2022-08-21T14:29:10.948Z,24.53
2022-08-21T14:31:43.073Z,24.57
2022-08-21T14:34:19.612Z,24.60
2022-08-21T14:36:50.364Z,24.49
2022-08-21T14:39:18.908Z,24.49
2022-08-21T14:41:49.453Z,24.02
2022-08-21T14:44:19.162Z,23.41
2022-08-21T14:46:56.051Z,23.45
2022-08-21T14:49:28.656Z,23.58
2022-08-21T14:51:59.408Z,23.12
2022-08-21T14:54:30.937Z,23.26
2022-08-21T14:57:01.614Z,23.50
2022-08-21T14:59:30.551Z,23.24
2022-08-21T15:01:59.332Z,22.83
2022-08-21T15:04:28.835Z,23.13
2022-08-21T15:06:58.908Z,23.30
2022-08-21T15:09:27.764Z,23.48
2022-08-21T15:11:57.533Z,23.54
2022-08-21T15:14:28.592Z,23.55
2022-08-21T15:16:57.419Z,23.46
2022-08-21T15:19:26.159Z,23.38
2022-08-21T15:21:54.981Z,23.34
2022-08-21T15:24:25.110Z,23.54
2022-08-21T15:26:53.923Z,23.37
2022-08-21T15:29:23.098Z,23.41
2022-08-21T15:31:56.783Z,23.35
2022-08-21T15:34:27.288Z,23.31
2022-08-21T15:36:57.425Z,23.07
2022-08-21T15:39:30.925Z,22.85
2022-08-21T15:42:11.143Z,23.14
2022-08-21T15:44:40.928Z,22.89
2022-08-21T15:47:10.703Z,22.55
2022-08-21T15:49:39.472Z,22.68
2022-08-21T15:52:08.258Z,22.94
2022-08-21T15:54:38.353Z,22.83
2022-08-21T15:57:07.141Z,23.62
2022-08-21T15:59:42.849Z,23.94
2022-08-21T16:02:14.158Z,24.09
2022-08-21T16:04:42.629Z,24.19
2022-08-21T16:07:11.805Z,24.30
2022-08-21T16:09:41.671Z,24.34
2022-08-21T16:12:11.537Z,24.40
2022-08-21T16:14:39.967Z,24.44
2022-08-21T16:17:08.501Z,24.47
2022-08-21T16:19:36.978Z,24.51
2022-08-21T16:22:05.749Z,24.54
2022-08-21T16:24:34.522Z,24.54
2022-08-21T16:27:07.959Z,24.59
2022-08-21T16:29:37.826Z,24.62
2022-08-21T16:32:09.089Z,24.65
2022-08-21T16:34:37.783Z,24.66
2022-08-21T16:37:06.372Z,24.68
2022-08-21T16:39:34.884Z,24.74
2022-08-21T16:42:03.319Z,24.77
2022-08-21T16:44:35.524Z,24.79
2022-08-21T16:47:06.090Z,24.83
2022-08-21T16:49:34.558Z,24.86
2022-08-21T16:52:03.395Z,24.86
2022-08-21T16:54:32.011Z,24.88
2022-08-21T16:57:00.743Z,24.89
2022-08-21T16:59:29.218Z,24.93
2022-08-21T17:01:59.042Z,24.98
2022-08-21T17:04:28.680Z,24.98
2022-08-21T17:06:57.183Z,24.99
2022-08-21T17:09:25.680Z,25.00
2022-08-21T17:11:54.283Z,25.00
2022-08-21T17:14:24.183Z,25.04
2022-08-21T17:16:55.568Z,25.07
2022-08-21T17:19:25.581Z,25.06
2022-08-21T17:21:54.125Z,25.08
2022-08-21T17:24:22.884Z,25.08
2022-08-21T17:26:51.370Z,25.09
2022-08-21T17:29:20.151Z,25.12
2022-08-21T17:31:48.631Z,25.11
2022-08-21T17:34:17.534Z,25.11
2022-08-21T17:36:47.388Z,25.14
2022-08-21T17:39:22.040Z,25.16
2022-08-21T17:41:58.075Z,25.17
2022-08-21T17:44:26.894Z,25.19
2022-08-21T17:46:55.491Z,25.18
2022-08-21T17:49:24.254Z,25.18
2022-08-21T17:51:54.054Z,25.20
2022-08-21T17:54:22.514Z,25.21
2022-08-21T17:56:50.925Z,25.26
2022-08-21T17:59:19.419Z,25.29
2022-08-21T18:01:48.235Z,25.30
2022-08-21T18:04:16.888Z,25.31
2022-08-21T18:06:45.559Z,25.31
2022-08-21T18:09:15.405Z,25.28
2022-08-21T18:11:43.894Z,25.31
2022-08-21T18:14:12.469Z,25.33
2022-08-21T18:16:40.964Z,25.32
2022-08-21T18:19:11.938Z,25.32
2022-08-21T18:21:40.494Z,25.35
2022-08-21T18:24:09.399Z,25.32
2022-08-21T18:26:39.683Z,25.32
2022-08-21T18:29:10.124Z,25.31
2022-08-21T18:31:39.565Z,25.31
2022-08-21T18:34:11.461Z,25.32
2022-08-21T18:36:40.157Z,25.32
2022-08-21T18:39:34.446Z,25.33
2022-08-21T18:41:58.850Z,25.34
2022-08-21T18:44:29.053Z,25.34
2022-08-21T18:47:01.202Z,25.34
2022-08-21T18:49:29.728Z,25.35
2022-08-21T18:51:58.288Z,25.34
2022-08-21T18:54:27.239Z,25.33
2022-08-21T18:56:55.809Z,25.35
2022-08-21T18:59:28.689Z,25.37
2022-08-21T19:01:58.709Z,25.37
2022-08-21T19:07:19.817Z,25.39
2022-08-21T19:10:07.550Z,25.38
2022-08-21T19:12:39.081Z,25.39
2022-08-21T19:15:10.551Z,25.39
2022-08-21T19:17:39.151Z,25.41
2022-08-21T19:20:16.751Z,25.40
2022-08-21T19:22:55.399Z,25.40
2022-08-21T19:25:33.882Z,25.39
2022-08-21T19:28:10.891Z,25.40
2022-08-21T19:30:46.216Z,25.41
2022-08-21T19:33:31.934Z,25.41
2022-08-21T19:36:02.348Z,25.41
2022-08-21T19:38:30.953Z,25.41
2022-08-21T19:41:00.598Z,25.42
2022-08-21T19:43:29.229Z,25.45
2022-08-21T19:45:59.343Z,25.50
2022-08-21T19:48:28.819Z,25.45
2022-08-21T19:50:59.362Z,25.46
2022-08-21T19:53:27.953Z,25.44
2022-08-21T19:55:56.446Z,25.44
2022-08-21T19:58:34.345Z,25.44
2022-08-21T20:01:05.163Z,25.44
2022-08-21T20:03:40.380Z,25.45
2022-08-21T20:06:12.024Z,25.44
2022-08-21T20:08:40.730Z,25.45
2022-08-21T20:11:09.557Z,25.46
2022-08-21T20:13:38.133Z,25.47
2022-08-21T20:16:15.027Z,25.47
2022-08-21T20:18:43.567Z,25.47
2022-08-21T20:21:13.415Z,25.47
2022-08-21T20:23:48.829Z,25.47
2022-08-21T20:26:32.499Z,25.49
2022-08-21T20:29:01.682Z,25.54
2022-08-21T20:31:31.659Z,25.53
2022-08-21T20:34:02.605Z,25.49
2022-08-21T20:36:31.200Z,25.47
2022-08-21T20:38:59.810Z,25.52
2022-08-21T20:41:30.410Z,25.54
2022-08-21T20:44:16.861Z,25.55
2022-08-21T20:46:46.973Z,25.58
2022-08-21T20:49:20.987Z,25.54
2022-08-21T20:51:51.304Z,25.50
2022-08-21T20:54:24.289Z,25.49
2022-08-21T20:56:55.628Z,25.51
2022-08-21T20:59:42.650Z,25.54
2022-08-21T21:02:35.255Z,25.54
2022-08-21T21:05:10.525Z,25.54
2022-08-21T21:07:44.548Z,25.55
2022-08-21T21:10:21.523Z,25.54
2022-08-21T21:12:53.598Z,25.53
2022-08-21T21:15:27.933Z,25.53
2022-08-21T21:18:03.294Z,25.54
2022-08-21T21:20:38.040Z,25.56
2022-08-21T21:23:17.200Z,25.57
2022-08-21T21:25:53.876Z,25.58
2022-08-21T21:28:30.465Z,25.59
2022-08-21T21:30:58.923Z,25.58
2022-08-21T21:33:33.780Z,25.59
2022-08-21T21:36:11.134Z,25.60
2022-08-21T21:38:51.622Z,25.60
2022-08-21T21:41:28.542Z,25.59
2022-08-21T21:44:12.574Z,25.63
2022-08-21T21:49:53.950Z,25.61
2022-08-21T21:52:44.983Z,25.63
2022-08-21T21:55:30.153Z,25.63
2022-08-21T21:58:10.796Z,25.64
2022-08-21T22:00:52.424Z,25.64
2022-08-21T22:03:27.351Z,25.65
2022-08-21T22:06:01.271Z,25.67
2022-08-21T22:08:40.616Z,25.68
2022-08-21T22:11:29.365Z,25.69
2022-08-21T22:14:04.284Z,25.67
2022-08-21T22:16:34.384Z,25.68
2022-08-21T22:19:21.206Z,25.67
2022-08-21T22:21:54.972Z,25.67
2022-08-21T22:24:27.802Z,25.68
2022-08-21T22:27:01.961Z,25.67
2022-08-21T22:29:46.254Z,25.68
2022-08-21T22:32:19.226Z,25.67
2022-08-21T22:35:03.086Z,25.67
2022-08-21T22:37:37.383Z,25.68
2022-08-21T22:40:07.435Z,25.66
2022-08-21T22:42:36.173Z,25.66
2022-08-21T22:45:09.427Z,25.66
2022-08-21T22:47:42.905Z,25.66
2022-08-21T22:50:21.018Z,25.66
2022-08-21T22:52:53.676Z,25.66
2022-08-21T22:55:25.461Z,25.67
2022-08-21T22:58:09.409Z,25.66
2022-08-21T23:00:53.130Z,25.66
2022-08-21T23:03:31.848Z,25.65
2022-08-21T23:06:03.139Z,25.67
2022-08-21T23:11:39.999Z,25.71
2022-08-21T23:14:14.059Z,25.71
2022-08-21T23:16:51.501Z,25.72
2022-08-21T23:19:28.544Z,25.72
2022-08-21T23:22:05.652Z,25.73
2022-08-21T23:24:56.834Z,25.72
2022-08-21T23:27:38.248Z,25.73
2022-08-21T23:30:11.196Z,25.74
2022-08-21T23:33:12.928Z,25.73
2022-08-21T23:36:03.316Z,25.74
2022-08-21T23:38:45.567Z,25.75
2022-08-21T23:41:33.942Z,25.74
2022-08-21T23:44:27.200Z,25.63
2022-08-21T23:47:20.177Z,25.59
2022-08-21T23:49:53.890Z,25.56
2022-08-21T23:52:49.536Z,25.53
2022-08-21T23:55:38.872Z,25.51
2022-08-21T23:58:19.218Z,25.49
